Time;durP1;ratioP1;P1;durP2;ratioP2;P2;SDS_P1;SDS_P2;PMS_P1;PMS_P2;Temp;Humidity;BMP_temperature;BMP_pressure;BME280_temperature;BME280_humidity;BME280_pressure;Samples;Min_cycle;Max_cycle;Signal;HPM_P1;HPM_P2
2023/05/21 00:01:47;;;;;;;3.65;3.30;;;;;;;17.37;64.96;96192.28;10448603;28;20489;-28
2023/05/21 00:06:47;;;;;;;5.18;3.38;;;;;;;17.36;64.82;96189.75;10452428;28;20049;-27
2023/05/21 00:11:47;;;;;;;4.53;3.83;;;;;;;17.38;65.07;96183.00;10449151;28;20036;-29
2023/05/21 00:16:48;;;;;;;3.97;3.27;;;;;;;17.38;64.07;96186.38;10449209;28;20033;-28
2023/05/21 00:21:49;;;;;;;5.50;3.47;;;;;;;17.37;64.65;96189.75;10449760;28;20313;-27
2023/05/21 00:26:49;;;;;;;5.75;3.70;;;;;;;17.36;64.99;96189.75;10449244;28;20884;-28
2023/05/21 00:31:50;;;;;;;4.70;4.23;;;;;;;17.37;64.65;96189.75;10431550;28;20056;-28
2023/05/21 00:36:54;;;;;;;4.43;3.15;;;;;;;17.36;64.11;96182.16;10448699;28;20068;-28
2023/05/21 00:41:55;;;;;;;3.53;3.22;;;;;;;17.36;64.20;96188.09;10453941;28;20107;-27
2023/05/21 00:46:56;;;;;;;4.82;3.70;;;;;;;17.37;64.31;96193.97;10448929;28;20037;-28
2023/05/21 00:52:00;;;;;;;5.53;4.22;;;;;;;17.34;63.03;96178.78;10437386;28;20029;-28
2023/05/21 00:57:02;;;;;;;3.50;3.17;;;;;;;17.37;65.17;96181.31;10459945;28;20481;-28
2023/05/21 01:02:05;;;;;;;4.35;3.28;;;;;;;17.36;65.25;96177.97;10437178;28;20029;-29
2023/05/21 01:07:08;;;;;;;3.63;3.30;;;;;;;17.38;64.77;96185.53;10462212;28;20021;-28
2023/05/21 01:12:09;;;;;;;3.55;3.13;;;;;;;17.38;64.61;96185.53;10455678;28;20017;-28
2023/05/21 01:17:11;;;;;;;4.03;3.03;;;;;;;17.38;64.03;96177.94;10437346;28;20565;-28
2023/05/21 01:22:13;;;;;;;3.55;3.20;;;;;;;17.37;62.24;96178.78;10462262;28;20027;-28
2023/05/21 01:27:13;;;;;;;3.58;3.28;;;;;;;17.22;63.57;96149.31;10442407;28;20036;-28
2023/05/21 01:32:17;;;;;;;3.17;2.80;;;;;;;17.35;63.63;96175.41;10436854;28;20343;-29
2023/05/21 01:37:28;;;;;;;2.80;2.50;;;;;;;17.35;62.91;96175.41;10442146;28;20113;-28
2023/05/21 01:42:30;;;;;;;3.17;2.88;;;;;;;17.35;63.53;96172.88;10460020;28;20029;-28
2023/05/21 01:47:32;;;;;;;4.53;3.80;;;;;;;17.34;64.29;96171.19;10444213;28;20064;-28
2023/05/21 01:52:32;;;;;;;3.65;3.13;;;;;;;17.33;63.87;96169.50;10461651;28;20036;-28
2023/05/21 01:57:32;;;;;;;4.47;3.30;;;;;;;17.35;63.56;96170.34;10461463;28;20087;-28
2023/05/21 02:02:33;;;;;;;3.65;3.35;;;;;;;17.34;65.14;96166.94;10438945;28;20025;-28
2023/05/21 02:07:33;;;;;;;3.43;3.13;;;;;;;17.32;65.10;96150.13;10442721;28;20378;-27
2023/05/21 02:12:34;;;;;;;4.47;3.55;;;;;;;17.37;64.98;96158.53;10448019;28;20116;-27
2023/05/21 02:17:37;;;;;;;3.13;2.83;;;;;;;17.37;64.51;96163.59;10439378;28;20626;-28
2023/05/21 02:22:46;;;;;;;3.17;2.88;;;;;;;17.36;64.14;96156.88;10437786;28;20709;-28
2023/05/21 02:27:47;;;;;;;3.78;3.00;;;;;;;17.35;62.76;96155.16;10463560;28;20040;-28
2023/05/21 02:32:48;;;;;;;3.60;3.10;;;;;;;17.35;63.46;96150.94;10457572;28;20043;-28
2023/05/21 02:37:49;;;;;;;3.15;2.85;;;;;;;17.34;63.51;96148.41;10455165;28;20036;-28
2023/05/21 02:42:49;;;;;;;3.20;2.88;;;;;;;17.35;63.94;96145.03;10441807;28;20029;-28
2023/05/21 02:47:53;;;;;;;3.75;3.00;;;;;;;17.35;62.42;96140.84;10435583;28;20500;-28
2023/05/21 02:52:53;;;;;;;3.45;3.15;;;;;;;17.34;63.95;96138.28;10438998;28;20031;-28
2023/05/21 02:57:54;;;;;;;3.33;3.00;;;;;;;17.35;64.06;96139.97;10453079;28;20043;-28
2023/05/21 03:02:54;;;;;;;4.10;3.20;;;;;;;17.34;63.48;96144.19;10451586;28;20302;-28
2023/05/21 03:07:55;;;;;;;4.90;2.97;;;;;;;17.22;65.27;96125.69;10438318;28;20412;-28
2023/05/21 03:12:55;;;;;;;3.20;2.90;;;;;;;17.32;65.50;96142.53;10434951;28;20267;-27
2023/05/21 03:17:56;;;;;;;3.92;3.25;;;;;;;17.35;65.17;96142.50;10434273;28;20508;-28
2023/05/21 03:22:57;;;;;;;3.42;3.10;;;;;;;17.35;64.56;96147.56;10456541;28;20402;-28
2023/05/21 03:27:57;;;;;;;3.00;2.73;;;;;;;17.35;63.61;96155.16;10452461;28;20087;-28
2023/05/21 03:33:24;;;;;;;3.20;2.90;;;;;;;17.34;63.96;96153.47;10454668;28;20048;-28
2023/05/21 03:38:24;;;;;;;5.05;3.30;;;;;;;17.34;64.06;96159.38;10457985;28;20561;-28
2023/05/21 03:43:25;;;;;;;3.50;3.08;;;;;;;17.32;64.39;96162.78;10431786;28;20033;-28
2023/05/21 03:48:25;;;;;;;4.20;3.40;;;;;;;17.33;64.12;96169.50;10435580;28;20562;-28
2023/05/21 03:53:25;;;;;;;3.28;2.97;;;;;;;17.33;64.16;96172.03;10457738;28;20400;-28
2023/05/21 03:58:26;;;;;;;3.65;3.20;;;;;;;17.32;63.39;96176.25;10429929;28;20082;-27
2023/05/21 04:03:27;;;;;;;3.38;3.08;;;;;;;17.32;64.20;96175.41;10431954;28;20417;-28
2023/05/21 04:08:28;;;;;;;2.97;2.50;;;;;;;17.31;63.82;96178.81;10439226;28;20039;-28
2023/05/21 04:13:28;;;;;;;3.45;2.90;;;;;;;17.32;64.70;96185.53;10431385;28;20396;-28
2023/05/21 04:18:28;;;;;;;3.50;3.20;;;;;;;17.32;65.33;96190.59;10440127;28;20049;-28
2023/05/21 04:23:29;;;;;;;3.17;2.85;;;;;;;17.34;65.07;96193.97;10457480;28;20044;-28
2023/05/21 04:28:32;;;;;;;2.67;2.47;;;;;;;17.33;64.81;96195.63;10439717;28;20072;-27
2023/05/21 04:33:34;;;;;;;3.30;2.97;;;;;;;17.34;64.57;96204.09;10464799;28;20029;-27
2023/05/21 04:38:35;;;;;;;2.70;2.50;;;;;;;17.31;63.73;96204.94;10439069;28;20106;-28
2023/05/21 04:43:42;;;;;;;3.47;2.72;;;;;;;17.32;63.58;96219.25;10438223;28;20463;-29
2023/05/21 04:48:43;;;;;;;2.75;2.55;;;;;;;17.33;63.97;96217.59;10460360;28;20078;-27
2023/05/21 04:53:44;;;;;;;3.83;3.40;;;;;;;17.31;63.41;96219.28;10460975;28;20471;-27
2023/05/21 04:58:46;;;;;;;4.65;2.97;;;;;;;17.29;64.52;96215.88;10464021;28;20028;-28
2023/05/21 05:03:47;;;;;;;3.30;3.00;;;;;;;17.30;64.00;96223.47;10448654;28;20052;-28
2023/05/21 05:08:48;;;;;;;3.13;2.83;;;;;;;17.27;64.02;96218.44;10443988;28;20124;-28
2023/05/21 05:13:51;;;;;;;3.60;3.30;;;;;;;17.32;64.25;96215.91;10445101;28;20029;-28
2023/05/21 05:18:54;;;;;;;3.50;2.75;;;;;;;17.34;64.58;96225.13;10455395;28;20174;-27
2023/05/21 05:23:55;;;;;;;3.25;2.97;;;;;;;17.33;65.19;96227.69;10460068;28;20324;-28
2023/05/21 05:29:00;;;;;;;3.28;2.97;;;;;;;17.34;65.08;96221.78;10460652;28;20044;-28
2023/05/21 05:34:00;;;;;;;3.95;3.10;;;;;;;17.36;64.65;96215.06;10455741;28;20029;-28
2023/05/21 05:39:02;;;;;;;3.65;3.28;;;;;;;17.37;62.96;96212.53;10460364;28;20128;-28
2023/05/21 05:44:02;;;;;;;2.63;2.42;;;;;;;17.35;64.68;96216.72;10434882;28;20454;-28
2023/05/21 05:49:06;;;;;;;2.97;2.67;;;;;;;17.35;63.94;96210.81;10440665;28;20096;-28
2023/05/21 05:54:06;;;;;;;3.45;2.72;;;;;;;17.34;63.92;96209.13;10452690;28;20115;-28
2023/05/21 05:59:08;;;;;;;3.42;3.10;;;;;;;17.35;64.02;96208.28;10447553;28;20037;-28
2023/05/21 06:04:11;;;;;;;3.13;2.78;;;;;;;17.35;62.30;96203.22;10456996;28;20508;-28
2023/05/21 06:09:11;;;;;;;2.75;2.55;;;;;;;17.34;63.70;96201.56;10435618;28;20025;-28
2023/05/21 06:14:12;;;;;;;4.30;3.70;;;;;;;17.33;63.79;96199.88;10434652;28;20029;-27
2023/05/21 06:19:12;;;;;;;3.22;2.90;;;;;;;17.36;62.68;96208.31;10456470;28;20296;-28
2023/05/21 06:24:13;;;;;;;6.43;3.50;;;;;;;17.36;64.47;96199.88;10434129;28;20059;-28
2023/05/21 06:29:13;;;;;;;5.53;3.83;;;;;;;17.37;65.13;96207.47;10434022;28;20282;-28
2023/05/21 06:34:14;;;;;;;6.78;3.83;;;;;;;17.39;65.05;96202.38;10434316;28;20071;-28
2023/05/21 06:39:14;;;;;;;4.30;3.75;;;;;;;17.41;64.60;96205.78;10443982;28;20032;-28
2023/05/21 06:44:15;;;;;;;4.68;3.45;;;;;;;17.40;63.74;96201.56;10436136;28;20032;-28
2023/05/21 06:49:41;;;;;;;7.53;6.77;;;;;;;17.41;65.51;96198.19;10432725;28;20035;-27
2023/05/21 06:54:44;;;;;;;8.93;4.43;;;;;;;17.41;64.41;96199.00;10431259;28;20035;-28
2023/05/21 06:59:45;;;;;;;7.40;4.82;;;;;;;17.43;64.87;96204.06;10431185;28;20272;-28
2023/05/21 07:04:45;;;;;;;4.43;3.83;;;;;;;17.43;64.20;96204.06;10457341;28;20392;-28
2023/05/21 07:09:46;;;;;;;6.57;5.93;;;;;;;17.42;64.41;96203.22;10440097;28;20287;-28
2023/05/21 07:14:46;;;;;;;6.57;5.70;;;;;;;17.41;65.25;96205.78;10450138;28;20401;-29
2023/05/21 07:19:46;;;;;;;7.07;6.30;;;;;;;17.39;64.46;96212.50;10438010;28;20299;-28
2023/05/21 07:24:47;;;;;;;8.23;6.38;;;;;;;17.39;65.21;96210.84;10447901;28;20029;-28
2023/05/21 07:29:48;;;;;;;6.85;6.15;;;;;;;17.38;65.10;96211.69;10450101;28;20081;-28
2023/05/21 07:34:50;;;;;;;10.15;5.97;;;;;;;17.40;66.64;96201.56;10433080;28;20052;-28
2023/05/21 07:39:51;;;;;;;6.00;5.40;;;;;;;17.40;66.52;96199.84;10443025;28;20033;-28
2023/05/21 07:44:51;;;;;;;6.03;5.03;;;;;;;17.42;65.12;96199.88;10431912;28;20029;-28
2023/05/21 07:49:52;;;;;;;5.60;4.93;;;;;;;17.42;65.20;96197.34;10443158;28;20345;-28
2023/05/21 07:54:52;;;;;;;8.27;5.40;;;;;;;17.40;64.32;96199.03;10433107;28;20122;-27
2023/05/21 07:59:56;;;;;;;5.45;3.50;;;;;;;17.41;62.15;96193.13;10445676;28;20032;-28
2023/05/21 08:04:57;;;;;;;5.50;3.83;;;;;;;17.42;61.90;96198.16;10458419;28;20029;-28
2023/05/21 08:09:58;;;;;;;9.57;4.25;;;;;;;17.43;62.40;96193.94;10451729;28;20116;-28
2023/05/21 08:14:59;;;;;;;9.38;4.35;;;;;;;17.43;62.23;96189.75;10439999;28;20166;-28
2023/05/21 08:20:00;;;;;;;5.25;3.70;;;;;;;17.43;61.99;96183.84;10447955;28;20120;-28
2023/05/21 08:25:02;;;;;;;3.75;3.38;;;;;;;17.44;61.70;96188.03;10440550;28;20040;-28
2023/05/21 08:30:04;;;;;;;4.00;3.60;;;;;;;17.44;61.77;96186.38;10438652;28;20033;-28
2023/05/21 08:35:07;;;;;;;5.63;4.20;;;;;;;17.52;63.00;96191.38;10443022;28;20052;-28
2023/05/21 08:40:22;;;;;;;11.48;6.63;;;;;;;17.56;65.93;96185.47;10440790;28;20362;-28
2023/05/21 08:45:23;;;;;;;8.98;5.68;;;;;;;17.58;65.87;96183.75;10454708;28;20033;-28
2023/05/21 08:50:26;;;;;;;7.15;4.70;;;;;;;17.55;62.74;96183.75;10446034;28;20033;-28
2023/05/21 08:55:27;;;;;;;4.97;4.15;;;;;;;17.52;62.19;96178.72;10439733;28;20033;-28
2023/05/21 09:00:28;;;;;;;6.60;4.15;;;;;;;17.50;62.12;96180.44;10438624;28;20108;-27
2023/05/21 09:05:30;;;;;;;8.88;4.20;;;;;;;17.47;62.33;96182.94;10441922;28;20040;-28
2023/05/21 09:10:46;;;;;;;8.43;4.20;;;;;;;17.49;61.78;96186.34;10438791;28;20044;-27
2023/05/21 09:15:50;;;;;;;6.53;3.90;;;;;;;17.43;61.85;96176.25;10435806;28;20045;-28
2023/05/21 09:20:52;;;;;;;5.15;4.15;;;;;;;17.46;61.72;96189.72;10441272;28;20021;-28
2023/05/21 09:25:54;;;;;;;5.40;3.35;;;;;;;17.45;61.71;96189.72;10447330;28;20025;-28
2023/05/21 09:31:02;;;;;;;10.25;4.25;;;;;;;17.43;62.36;96178.78;10436674;28;20397;-27
2023/05/21 09:36:06;;;;;;;6.25;3.88;;;;;;;17.44;61.95;96185.50;10461111;28;20029;-28
2023/05/21 09:41:07;;;;;;;13.70;6.10;;;;;;;17.40;64.47;96178.78;10456526;28;20405;-29
2023/05/21 09:46:08;;;;;;;13.25;7.10;;;;;;;17.49;67.57;96178.75;10438970;28;20089;-28
2023/05/21 09:51:17;;;;;;;22.75;8.15;;;;;;;17.38;67.63;96160.22;10438891;28;20501;-28
2023/05/21 09:56:25;;;;;;;10.82;5.00;;;;;;;17.51;63.89;96177.03;10456301;28;20451;-27
2023/05/21 10:01:26;;;;;;;10.55;4.07;;;;;;;17.47;62.45;96180.41;10453789;28;20071;-28
2023/05/21 10:06:31;;;;;;;4.88;4.07;;;;;;;17.43;62.06;96177.09;10466085;28;20040;-28
2023/05/21 10:11:33;;;;;;;10.90;4.53;;;;;;;17.48;61.90;96172.00;10460432;28;20025;-28
2023/05/21 10:16:35;;;;;;;6.75;4.88;;;;;;;17.33;62.61;96152.63;10451446;28;20067;-28
2023/05/21 10:21:36;;;;;;;10.68;4.72;;;;;;;17.48;62.35;96161.88;10459985;28;20531;-28
2023/05/21 10:26:37;;;;;;;12.30;5.53;;;;;;;17.39;63.36;96150.09;10462566;28;20068;-28
2023/05/21 10:31:37;;;;;;;6.35;4.80;;;;;;;17.54;62.97;96171.97;10452278;28;20056;-28
2023/05/21 10:36:39;;;;;;;8.50;5.15;;;;;;;17.54;63.37;96161.84;10455573;28;20036;-28
2023/05/21 10:42:00;;;;;;;6.80;5.65;;;;;;;17.56;64.48;96170.28;10451988;28;20079;-28
2023/05/21 10:47:11;;;;;;;10.43;6.20;;;;;;;17.58;64.19;96163.50;10457560;28;20040;-27
2023/05/21 10:52:18;;;;;;;15.98;10.18;;;;;;;17.52;67.23;96146.69;10460178;28;20037;-28
2023/05/21 10:57:46;;;;;;;16.30;9.32;;;;;;;17.65;67.39;96160.09;10463082;28;20040;-28
2023/05/21 11:02:50;;;;;;;13.23;7.05;;;;;;;17.66;64.24;96157.53;10464134;28;20136;-30
2023/05/21 11:07:55;;;;;;;13.63;8.00;;;;;;;17.63;64.28;96165.16;10459194;28;20108;-28
2023/05/21 11:13:13;;;;;;;12.18;7.90;;;;;;;17.59;64.11;96155.06;10474696;28;20032;-29
2023/05/21 11:18:16;;;;;;;10.38;6.53;;;;;;;17.63;62.78;96156.72;10478126;28;20066;-29
2023/05/21 11:23:19;;;;;;;13.05;7.03;;;;;;;17.63;62.78;96161.78;10461467;28;20095;-28
2023/05/21 11:28:32;;;;;;;9.25;6.60;;;;;;;17.63;62.58;96151.66;10452457;28;20048;-29
2023/05/21 11:33:33;;;;;;;8.27;5.75;;;;;;;17.62;62.46;96153.38;10460732;28;20032;-27
2023/05/21 11:38:33;;;;;;;7.60;6.77;;;;;;;17.62;62.76;96160.09;10455567;28;20032;-29
2023/05/21 11:43:42;;;;;;;19.85;8.65;;;;;;;17.70;67.13;96154.16;10458101;28;20107;-28
2023/05/21 11:48:43;;;;;;;10.88;7.43;;;;;;;17.66;63.19;96152.47;10456824;28;20041;-29
2023/05/21 11:53:44;;;;;;;9.60;7.22;;;;;;;17.67;62.84;96148.28;10452965;28;20449;-29
2023/05/21 11:58:45;;;;;;;12.43;10.48;;;;;;;17.75;68.67;96154.13;10449539;28;20033;-28
2023/05/21 12:03:45;;;;;;;13.40;8.93;;;;;;;17.76;67.11;96153.28;10451313;28;20591;-28
2023/05/21 12:08:51;;;;;;;8.17;7.37;;;;;;;17.72;63.24;96141.47;10452904;28;20302;-28
2023/05/21 12:13:51;;;;;;;10.77;7.22;;;;;;;17.67;63.01;96145.75;10449283;28;20056;-28
2023/05/21 12:18:53;;;;;;;12.50;9.00;;;;;;;17.66;63.07;96151.66;10449865;28;20504;-29
2023/05/21 12:23:54;;;;;;;15.15;9.35;;;;;;;17.62;62.62;96166.03;10460995;28;20344;-29
2023/05/21 12:28:54;;;;;;;12.82;8.68;;;;;;;17.64;62.78;96173.59;10449392;28;20500;-28
2023/05/21 12:33:55;;;;;;;13.00;8.20;;;;;;;17.63;62.55;96182.03;10454950;28;20040;-28
2023/05/21 12:38:56;;;;;;;9.33;8.33;;;;;;;17.62;62.50;96175.28;10452483;28;20037;-29
2023/05/21 12:43:57;;;;;;;9.38;8.23;;;;;;;17.62;62.70;96181.22;10448971;28;20048;-28
2023/05/21 12:48:57;;;;;;;11.70;8.17;;;;;;;17.63;62.28;96197.22;10449090;28;20043;-29
2023/05/21 12:53:58;;;;;;;9.88;7.68;;;;;;;17.62;62.28;96205.66;10460320;28;20021;-29
2023/05/21 12:58:58;;;;;;;9.83;6.77;;;;;;;17.62;62.36;96204.00;10456689;28;20047;-29
2023/05/21 13:03:58;;;;;;;10.23;9.10;;;;;;;17.72;67.63;96197.16;10456465;28;20295;-29
2023/05/21 13:08:59;;;;;;;12.30;9.67;;;;;;;17.76;68.80;96198.84;10459754;28;20037;-28
2023/05/21 13:13:59;;;;;;;9.83;8.23;;;;;;;17.70;63.50;96203.94;10455550;28;20048;-29
2023/05/21 13:19:00;;;;;;;10.85;6.55;;;;;;;17.66;62.37;96197.22;10459323;28;20298;-29
2023/05/21 13:24:00;;;;;;;8.93;6.40;;;;;;;17.64;62.04;96188.78;10459828;28;20036;-29
2023/05/21 13:29:00;;;;;;;8.67;7.60;;;;;;;17.60;64.70;96197.25;10460518;28;20024;-28
2023/05/21 13:34:01;;;;;;;7.70;6.90;;;;;;;17.64;62.23;96196.38;10453712;28;20028;-28
2023/05/21 13:39:01;;;;;;;7.87;6.17;;;;;;;17.63;62.19;96187.94;10463854;28;20032;-28
2023/05/21 13:44:02;;;;;;;7.67;6.13;;;;;;;17.64;61.92;96191.31;10454551;28;20029;-29
2023/05/21 13:49:02;;;;;;;7.82;7.03;;;;;;;17.62;62.00;96188.81;10460399;28;20052;-28
2023/05/21 13:54:03;;;;;;;7.17;6.10;;;;;;;17.61;61.82;96193.84;10454522;28;20033;-28
2023/05/21 13:59:03;;;;;;;9.33;6.40;;;;;;;17.63;61.72;96192.16;10454046;28;20208;-29
2023/05/21 14:04:04;;;;;;;6.78;5.60;;;;;;;17.61;61.82;96183.75;10467613;28;20110;-29
2023/05/21 14:09:05;;;;;;;10.50;8.13;;;;;;;17.74;66.40;96177.78;10471898;28;20036;-27
2023/05/21 14:14:05;;;;;;;12.57;8.45;;;;;;;17.77;67.28;96162.56;10459060;28;20021;-28
2023/05/21 14:19:06;;;;;;;7.07;6.38;;;;;;;17.72;63.60;96138.94;10456069;28;20032;-28
2023/05/21 14:24:06;;;;;;;7.10;5.70;;;;;;;17.67;62.03;96138.16;10457436;28;20116;-28
2023/05/21 14:29:07;;;;;;;7.83;5.93;;;;;;;17.66;61.82;96160.06;10452536;28;20040;-27
2023/05/21 14:34:08;;;;;;;6.53;5.90;;;;;;;17.63;61.91;96156.72;10454228;28;20337;-28
2023/05/21 14:39:08;;;;;;;7.20;5.80;;;;;;;17.60;61.80;96150.00;10456155;28;20039;-28
2023/05/21 14:44:08;;;;;;;6.63;5.77;;;;;;;17.62;61.81;96160.09;10451564;28;20296;-28
2023/05/21 14:49:10;;;;;;;7.53;5.67;;;;;;;17.61;61.76;96171.94;10453660;28;20045;-27
2023/05/21 14:54:11;;;;;;;6.30;5.60;;;;;;;17.60;61.96;96167.72;10457283;28;20029;-28
2023/05/21 14:59:11;;;;;;;8.20;6.50;;;;;;;17.64;63.46;96178.66;10448990;28;20037;-28
2023/05/21 15:04:12;;;;;;;8.05;5.68;;;;;;;17.63;62.95;96176.97;10457497;28;20137;-28
2023/05/21 15:09:12;;;;;;;14.03;8.80;;;;;;;17.65;65.50;96175.28;10463583;28;20048;-28
2023/05/21 15:14:12;;;;;;;13.83;10.53;;;;;;;17.80;69.18;96190.38;10454784;28;20036;-28
2023/05/21 15:19:13;;;;;;;32.93;13.53;;;;;;;17.86;68.68;96200.47;10453060;28;20033;-27
2023/05/21 15:24:13;;;;;;;18.70;8.10;;;;;;;17.76;65.24;96225.00;10452330;28;20032;-28
2023/05/21 15:29:13;;;;;;;10.27;7.13;;;;;;;17.69;63.45;96214.91;10449759;28;20294;-28
2023/05/21 15:34:14;;;;;;;7.75;5.90;;;;;;;17.55;62.78;96188.81;10456938;28;20048;-28
2023/05/21 15:39:14;;;;;;;10.00;5.85;;;;;;;17.64;62.81;96219.16;10455145;28;20029;-28
2023/05/21 15:44:15;;;;;;;9.07;5.90;;;;;;;17.62;62.71;96230.97;10454722;28;20025;-29
2023/05/21 15:49:16;;;;;;;10.10;5.63;;;;;;;17.61;62.60;96239.41;10456936;28;20287;-28
2023/05/21 15:54:16;;;;;;;14.85;9.43;;;;;;;17.60;63.13;96258.00;10449618;28;20473;-28
2023/05/21 15:59:17;;;;;;;11.50;6.27;;;;;;;17.61;62.63;96274.84;10448529;28;20032;-28
2023/05/21 16:04:20;;;;;;;11.53;7.60;;;;;;;17.63;65.00;96293.41;10447648;28;20304;-29
2023/05/21 16:09:20;;;;;;;8.45;6.13;;;;;;;17.61;62.99;96279.91;10458284;28;20520;-28
2023/05/21 16:14:22;;;;;;;10.93;6.37;;;;;;;17.59;62.68;96289.22;10460755;28;20029;-28
2023/05/21 16:19:24;;;;;;;18.13;10.63;;;;;;;17.66;69.50;96288.34;10457462;28;20078;-28
2023/05/21 16:24:25;;;;;;;16.67;11.07;;;;;;;17.75;69.52;96289.13;10460068;28;20037;-29
2023/05/21 16:29:25;;;;;;;18.67;8.15;;;;;;;17.71;65.63;96279.03;10472271;28;20037;-28
2023/05/21 16:34:26;;;;;;;10.95;6.80;;;;;;;17.69;63.20;96288.31;10462849;28;20025;-29
2023/05/21 16:39:26;;;;;;;25.80;7.17;;;;;;;17.66;63.53;96289.19;10462260;28;20190;-28
2023/05/21 16:44:26;;;;;;;8.63;6.67;;;;;;;17.67;62.93;96284.97;10456349;28;20543;-28
2023/05/21 16:49:29;;;;;;;8.87;5.93;;;;;;;17.66;62.33;96273.16;10463201;28;20549;-29
2023/05/21 16:54:29;;;;;;;7.80;6.03;;;;;;;17.65;62.73;96277.38;10461402;28;20540;-28
2023/05/21 16:59:30;;;;;;;8.30;5.93;;;;;;;17.64;62.46;96274.84;10456074;28;20043;-29
2023/05/21 17:04:30;;;;;;;11.93;6.50;;;;;;;17.62;62.46;96276.53;10462422;28;20033;-29
2023/05/21 17:09:30;;;;;;;8.60;6.67;;;;;;;17.61;62.76;96274.84;10468931;28;20086;-29
2023/05/21 17:14:31;;;;;;;6.73;6.03;;;;;;;17.59;62.26;96277.38;10460252;28;20401;-28
2023/05/21 17:19:31;;;;;;;10.73;6.33;;;;;;;17.60;62.26;96270.66;10473321;28;20043;-28
2023/05/21 17:24:31;;;;;;;14.10;8.50;;;;;;;17.69;69.19;96257.94;10473799;28;20041;-27
2023/05/21 17:29:32;;;;;;;13.97;11.03;;;;;;;17.74;70.35;96257.09;10462081;28;20028;-31
2023/05/21 17:34:32;;;;;;;15.30;10.25;;;;;;;17.74;69.13;96256.25;10463125;28;20063;-28
2023/05/21 17:39:33;;;;;;;16.80;8.10;;;;;;;17.68;64.43;96251.22;10461408;28;20381;-28
2023/05/21 17:44:33;;;;;;;10.20;7.50;;;;;;;17.63;63.40;96258.81;10450675;28;20040;-28
2023/05/21 17:49:33;;;;;;;8.20;5.10;;;;;;;17.60;63.04;96253.78;10459821;28;20028;-28
2023/05/21 17:54:34;;;;;;;8.47;6.77;;;;;;;17.60;63.07;96263.06;10473113;28;20294;-27
2023/05/21 17:59:34;;;;;;;11.88;6.05;;;;;;;17.57;62.56;96258.84;10460181;28;20739;-28
2023/05/21 18:04:35;;;;;;;9.23;5.33;;;;;;;17.57;62.55;96263.06;10460809;28;20845;-28
2023/05/21 18:09:35;;;;;;;9.17;5.70;;;;;;;17.60;63.31;96252.94;10458206;28;20413;-28
2023/05/21 18:14:35;;;;;;;10.00;5.50;;;;;;;17.57;62.81;96248.72;10458466;28;20065;-28
2023/05/21 18:19:36;;;;;;;7.30;5.53;;;;;;;17.58;62.69;96247.03;10474190;28;20063;-28
2023/05/21 18:24:37;;;;;;;8.48;6.07;;;;;;;17.57;62.71;96252.97;10459982;28;20319;-28
2023/05/21 18:29:37;;;;;;;11.00;7.15;;;;;;;17.62;65.44;96246.16;10452388;28;20044;-28
2023/05/21 18:34:37;;;;;;;16.67;8.90;;;;;;;17.71;70.08;96246.13;10460081;28;20109;-28
2023/05/21 18:39:38;;;;;;;18.30;8.63;;;;;;;17.75;70.25;96242.75;10466207;28;20033;-28
2023/05/21 18:44:38;;;;;;;8.47;6.40;;;;;;;17.70;66.42;96250.34;10448150;28;20419;-28
2023/05/21 18:49:38;;;;;;;8.10;6.50;;;;;;;17.64;63.84;96257.13;10450406;28;20120;-28
2023/05/21 18:54:39;;;;;;;8.60;5.97;;;;;;;17.60;63.43;96256.31;10453782;28;20306;-28
2023/05/21 18:59:39;;;;;;;6.47;5.87;;;;;;;17.58;63.43;96255.47;10456586;28;20443;-28
2023/05/21 19:04:40;;;;;;;10.70;5.75;;;;;;;17.54;63.18;96258.88;10468654;28;20374;-28
2023/05/21 19:09:40;;;;;;;6.40;5.80;;;;;;;17.56;62.82;96261.41;10458421;28;20043;-28
2023/05/21 19:14:43;;;;;;;6.80;5.80;;;;;;;17.54;62.59;96273.19;10457260;28;20504;-28
2023/05/21 19:19:44;;;;;;;8.77;5.78;;;;;;;17.55;62.79;96274.88;10463682;28;20303;-28
2023/05/21 19:24:45;;;;;;;7.23;5.03;;;;;;;17.54;62.67;96279.09;10466116;28;20489;-29
2023/05/21 19:29:46;;;;;;;5.55;5.05;;;;;;;17.53;62.44;96282.50;10470216;28;20056;-28
2023/05/21 19:34:47;;;;;;;13.27;7.55;;;;;;;17.67;70.22;96285.78;10459599;28;20024;-29
2023/05/21 19:39:48;;;;;;;11.27;7.87;;;;;;;17.70;70.08;96284.94;10467916;28;20507;-29
2023/05/21 19:44:49;;;;;;;9.85;5.43;;;;;;;17.54;67.01;96270.66;10462149;28;20545;-29
2023/05/21 19:49:49;;;;;;;6.10;4.93;;;;;;;17.61;63.83;96297.63;10464298;28;20105;-29
2023/05/21 19:54:50;;;;;;;7.17;4.90;;;;;;;17.57;63.02;96303.56;10461893;28;20032;-28
2023/05/21 19:59:51;;;;;;;5.40;4.90;;;;;;;17.56;63.10;96306.97;10463782;28;20040;-28
2023/05/21 20:04:55;;;;;;;6.50;5.20;;;;;;;17.55;62.81;96316.22;10457457;28;20140;-28
2023/05/21 20:09:55;;;;;;;8.18;4.75;;;;;;;17.54;62.98;96321.28;10453683;28;20039;-29
2023/05/21 20:14:58;;;;;;;5.60;5.00;;;;;;;17.54;62.60;96321.28;10461287;28;20029;-29
2023/05/21 20:20:02;;;;;;;5.18;4.60;;;;;;;17.53;62.48;96327.19;10456978;28;20808;-29
2023/05/21 20:25:03;;;;;;;5.38;4.70;;;;;;;17.52;62.39;96322.97;10456613;28;20501;-28
2023/05/21 20:30:07;;;;;;;5.45;4.53;;;;;;;17.52;62.27;96325.50;10436194;28;20041;-29
2023/05/21 20:35:08;;;;;;;4.97;4.20;;;;;;;17.51;62.21;96324.66;10454878;28;20415;-28
2023/05/21 20:40:09;;;;;;;9.30;6.70;;;;;;;17.63;69.74;96323.78;10459101;28;20036;-29
2023/05/21 20:45:11;;;;;;;9.07;6.70;;;;;;;17.71;69.61;96322.06;10446246;28;20033;-28
2023/05/21 20:50:12;;;;;;;13.30;6.88;;;;;;;17.72;69.43;96323.75;10463551;28;20480;-28
2023/05/21 20:55:13;;;;;;;7.27;4.87;;;;;;;17.63;63.72;96321.25;10462356;28;20195;-28
2023/05/21 21:00:14;;;;;;;6.10;4.40;;;;;;;17.61;62.57;96331.41;10454590;28;20287;-28
2023/05/21 21:05:15;;;;;;;5.93;4.82;;;;;;;17.64;62.81;96328.00;10465254;28;20032;-28
2023/05/21 21:10:15;;;;;;;6.60;4.33;;;;;;;17.64;62.77;96330.53;10468968;28;20040;-29
2023/05/21 21:15:15;;;;;;;4.40;3.97;;;;;;;17.67;62.63;96325.47;10471342;28;20279;-28
2023/05/21 21:20:17;;;;;;;5.37;4.30;;;;;;;17.69;62.65;96338.97;10453891;28;20053;-28
2023/05/21 21:25:17;;;;;;;7.55;4.47;;;;;;;17.70;62.27;96333.03;10467784;28;20029;-28
2023/05/21 21:30:18;;;;;;;4.55;4.15;;;;;;;17.68;62.06;96337.28;10455348;28;20029;-29
2023/05/21 21:35:21;;;;;;;4.43;4.03;;;;;;;17.68;62.19;96332.22;10460122;28;20025;-29
2023/05/21 21:40:23;;;;;;;4.97;4.45;;;;;;;17.68;61.88;96332.22;10461979;28;20291;-27
2023/05/21 21:45:23;;;;;;;4.20;3.80;;;;;;;17.69;62.65;96323.78;10454594;28;20044;-29
2023/05/21 21:50:24;;;;;;;8.98;6.43;;;;;;;17.73;70.41;96330.53;10462947;28;20107;-29
2023/05/21 21:55:25;;;;;;;11.13;6.40;;;;;;;17.74;70.28;96329.69;10461665;28;20033;-28
2023/05/21 22:00:25;;;;;;;5.87;4.33;;;;;;;17.73;63.63;96331.34;10454397;28;20263;-28
2023/05/21 22:05:29;;;;;;;3.60;3.30;;;;;;;17.71;62.64;96328.00;10461485;28;20303;-29
2023/05/21 22:10:32;;;;;;;5.35;4.30;;;;;;;17.70;62.65;96331.38;10460975;28;20501;-29
2023/05/21 22:15:33;;;;;;;5.28;4.10;;;;;;;17.68;62.04;96338.09;10456223;28;20500;-28
2023/05/21 22:20:33;;;;;;;4.28;3.88;;;;;;;17.63;62.34;96333.91;10458222;28;20025;-29
2023/05/21 22:25:34;;;;;;;5.50;4.05;;;;;;;17.66;62.20;96338.97;10460229;28;20397;-29
2023/05/21 22:30:36;;;;;;;4.67;4.07;;;;;;;17.65;62.09;96342.38;10461240;28;20396;-28
2023/05/21 22:35:36;;;;;;;4.15;3.75;;;;;;;17.65;62.14;96337.31;10461255;28;20049;-28
2023/05/21 22:40:37;;;;;;;4.27;3.70;;;;;;;17.63;62.03;96344.88;10460029;28;20511;-29
2023/05/21 22:45:37;;;;;;;5.93;4.43;;;;;;;17.64;61.90;96341.50;10452078;28;20294;-28
2023/05/21 22:50:37;;;;;;;4.10;3.70;;;;;;;17.62;61.88;96338.16;10462737;28;20032;-28
2023/05/21 22:55:38;;;;;;;6.73;5.50;;;;;;;17.72;69.57;96339.78;10458548;28;20024;-29
2023/05/21 23:00:38;;;;;;;5.97;5.37;;;;;;;17.74;69.68;96337.28;10451366;28;20319;-28
2023/05/21 23:05:38;;;;;;;4.63;4.13;;;;;;;17.72;63.83;96344.00;10451087;28;20025;-28
2023/05/21 23:10:39;;;;;;;4.37;3.97;;;;;;;17.70;62.48;96345.72;10459220;28;20115;-29
2023/05/21 23:15:42;;;;;;;4.23;3.83;;;;;;;17.64;62.26;96335.59;10454451;28;20673;-29
2023/05/21 23:20:42;;;;;;;4.05;3.65;;;;;;;17.65;62.07;96342.38;10450987;28;20287;-29